Time;durP1;ratioP1;P1;durP2;ratioP2;P2;SDS_P1;SDS_P2;PMS_P1;PMS_P2;Temp;Humidity;BMP_temperature;BMP_pressure;BME280_temperature;BME280_humidity;BME280_pressure;Samples;Min_cycle;Max_cycle;Signal;HPM_P1;HPM_P2
2022/08/07 00:00:36;;;;;;;1.13;1.00;;;13.10;99.90;;;;;;5078416;28;20254;-51
2022/08/07 00:03:07;;;;;;;2.30;1.20;;;13.10;99.90;;;;;;5088940;28;20277;-52
2022/08/07 00:05:36;;;;;;;3.10;1.40;;;13.00;99.90;;;;;;5088825;28;20235;-52
2022/08/07 00:08:05;;;;;;;2.43;0.90;;;13.00;99.90;;;;;;5088886;28;20218;-52
2022/08/07 00:10:36;;;;;;;1.40;0.83;;;12.90;99.90;;;;;;5089002;28;20727;-52
2022/08/07 00:13:15;;;;;;;2.80;1.03;;;13.00;99.90;;;;;;5089550;28;20286;-51
2022/08/07 00:15:53;;;;;;;0.80;0.80;;;13.00;99.90;;;;;;5089524;28;20253;-52
2022/08/07 00:18:23;;;;;;;1.00;0.80;;;12.90;99.90;;;;;;5089133;28;20200;-52
2022/08/07 00:20:53;;;;;;;1.43;0.90;;;12.90;99.90;;;;;;5089624;28;20212;-51
2022/08/07 00:23:21;;;;;;;1.93;1.10;;;12.90;99.90;;;;;;5088602;28;20266;-52
2022/08/07 00:25:50;;;;;;;2.00;0.80;;;12.90;99.90;;;;;;5089445;28;20224;-51
2022/08/07 00:28:31;;;;;;;0.80;0.80;;;12.90;99.90;;;;;;5088951;28;21034;-51
2022/08/07 00:31:02;;;;;;;0.97;0.87;;;12.90;99.90;;;;;;5089592;28;20337;-52
2022/08/07 00:33:34;;;;;;;1.70;0.97;;;12.90;99.90;;;;;;5088673;28;20208;-51
2022/08/07 00:36:04;;;;;;;0.87;0.73;;;12.80;99.90;;;;;;5089502;28;20625;-51
2022/08/07 00:38:35;;;;;;;1.27;0.77;;;12.80;99.90;;;;;;5088922;28;20212;-51
2022/08/07 00:41:07;;;;;;;0.93;0.60;;;12.80;99.90;;;;;;5090437;28;20197;-52
2022/08/07 00:43:41;;;;;;;0.83;0.80;;;12.80;99.90;;;;;;5091026;28;20204;-51
2022/08/07 00:46:29;;;;;;;1.33;0.90;;;12.80;99.90;;;;;;5089622;28;20306;-52
2022/08/07 00:49:01;;;;;;;0.80;0.80;;;12.70;99.90;;;;;;5089025;28;20241;-51
2022/08/07 00:51:31;;;;;;;1.63;0.87;;;12.70;99.90;;;;;;5089323;28;20659;-52
2022/08/07 00:54:19;;;;;;;1.17;1.07;;;12.70;99.90;;;;;;5088637;28;20789;-51
2022/08/07 00:56:51;;;;;;;0.80;0.80;;;12.70;99.90;;;;;;5088946;28;20356;-52
2022/08/07 00:59:20;;;;;;;1.53;0.80;;;12.60;99.90;;;;;;5075931;28;20247;-51
2022/08/07 01:02:04;;;;;;;1.20;1.10;;;12.60;99.90;;;;;;5075968;28;20196;-51
2022/08/07 01:04:36;;;;;;;3.07;1.00;;;12.60;99.90;;;;;;5090078;28;20208;-50
2022/08/07 01:07:11;;;;;;;1.87;0.90;;;12.60;99.90;;;;;;5088863;28;20219;-52
2022/08/07 01:09:39;;;;;;;1.37;0.90;;;12.60;99.90;;;;;;5088689;28;20812;-52
2022/08/07 01:12:29;;;;;;;1.53;0.87;;;12.60;99.90;;;;;;5077528;28;20303;-52
2022/08/07 01:14:59;;;;;;;1.00;0.80;;;12.50;99.90;;;;;;5089123;28;20729;-52
2022/08/07 01:17:32;;;;;;;2.27;1.07;;;12.50;99.90;;;;;;5088550;28;20915;-51
2022/08/07 01:20:07;;;;;;;1.10;0.90;;;12.50;99.90;;;;;;5090693;28;20805;-52
2022/08/07 01:22:38;;;;;;;1.17;0.80;;;12.50;99.90;;;;;;5092770;28;20207;-52
2022/08/07 01:25:24;;;;;;;1.63;0.90;;;12.50;99.90;;;;;;5092540;28;20219;-52
2022/08/07 01:28:12;;;;;;;1.83;0.90;;;12.40;99.90;;;;;;5092644;28;20287;-52
2022/08/07 01:30:41;;;;;;;1.33;0.90;;;12.40;99.90;;;;;;5092341;28;20228;-51
2022/08/07 01:33:12;;;;;;;3.80;1.17;;;12.40;99.90;;;;;;5091099;28;20294;-52
2022/08/07 01:35:41;;;;;;;1.50;0.90;;;12.40;99.90;;;;;;5110631;28;20238;-52
2022/08/07 01:38:23;;;;;;;2.47;1.10;;;12.30;99.90;;;;;;5112207;28;20212;-52
2022/08/07 01:40:56;;;;;;;0.90;0.90;;;12.30;99.90;;;;;;5112507;28;20204;-51
2022/08/07 01:43:25;;;;;;;1.40;0.93;;;12.20;99.90;;;;;;5112696;28;20634;-52
2022/08/07 01:46:03;;;;;;;1.20;1.10;;;12.20;99.90;;;;;;5112080;28;20702;-52
2022/08/07 01:48:31;;;;;;;1.87;1.20;;;12.20;99.90;;;;;;5112426;28;20207;-52
2022/08/07 01:51:03;;;;;;;1.23;1.00;;;12.20;99.90;;;;;;5112709;28;20256;-52
2022/08/07 01:53:56;;;;;;;1.27;1.17;;;12.10;99.90;;;;;;5112464;28;20945;-51
2022/08/07 01:56:49;;;;;;;3.77;1.10;;;12.10;99.90;;;;;;5095374;28;20649;-52
2022/08/07 01:59:23;;;;;;;2.93;1.13;;;12.10;99.90;;;;;;5112293;28;20326;-52
2022/08/07 02:02:05;;;;;;;2.87;1.10;;;12.00;99.90;;;;;;5112653;28;20200;-52
2022/08/07 02:04:40;;;;;;;1.63;1.10;;;12.00;99.90;;;;;;5112480;28;20210;-52
2022/08/07 02:07:26;;;;;;;1.90;0.93;;;12.00;99.90;;;;;;5111686;28;20206;-51
2022/08/07 02:10:18;;;;;;;1.00;1.00;;;12.00;99.90;;;;;;5110101;28;20310;-52
2022/08/07 02:12:48;;;;;;;2.40;1.40;;;12.00;99.90;;;;;;5109067;28;21014;-52
2022/08/07 02:15:21;;;;;;;1.33;1.20;;;12.00;99.90;;;;;;5112169;28;20575;-52
2022/08/07 02:17:51;;;;;;;1.30;1.20;;;12.00;99.90;;;;;;5111952;28;20203;-52
2022/08/07 02:20:22;;;;;;;1.03;1.03;;;12.00;99.90;;;;;;5102577;28;20234;-52
2022/08/07 02:22:56;;;;;;;1.40;1.30;;;12.00;99.90;;;;;;5111912;28;20242;-52
2022/08/07 02:25:30;;;;;;;2.07;1.10;;;11.90;99.90;;;;;;5111512;28;20210;-52
2022/08/07 02:28:18;;;;;;;1.10;1.00;;;11.90;99.90;;;;;;5108224;28;20299;-51
2022/08/07 02:30:53;;;;;;;1.70;1.20;;;11.90;99.90;;;;;;5110962;28;20659;-51
2022/08/07 02:33:25;;;;;;;3.73;1.00;;;11.90;99.90;;;;;;5108195;28;20211;-52
2022/08/07 02:36:14;;;;;;;1.37;1.10;;;11.90;99.90;;;;;;5111583;28;20742;-51
2022/08/07 02:38:59;;;;;;;0.93;0.93;;;11.90;99.90;;;;;;5111682;28;20712;-52
2022/08/07 02:41:29;;;;;;;2.10;0.90;;;11.80;99.90;;;;;;5111661;28;20207;-51
2022/08/07 02:44:05;;;;;;;1.17;1.10;;;11.80;99.90;;;;;;5111102;28;20298;-52
2022/08/07 02:46:35;;;;;;;1.57;1.40;;;11.80;99.90;;;;;;5110807;28;20245;-52
2022/08/07 02:49:04;;;;;;;2.17;1.60;;;11.80;99.90;;;;;;5110288;28;20228;-51
2022/08/07 02:51:35;;;;;;;1.37;1.00;;;11.80;99.90;;;;;;5111619;28;20210;-51
2022/08/07 02:54:21;;;;;;;1.23;1.20;;;11.90;99.90;;;;;;5109218;28;20672;-52
2022/08/07 02:56:54;;;;;;;0.90;0.90;;;11.80;99.90;;;;;;5106330;28;20211;-51
2022/08/07 02:59:26;;;;;;;1.00;1.00;;;11.80;99.90;;;;;;5110551;28;20235;-51
2022/08/07 03:01:55;;;;;;;1.10;1.10;;;11.80;99.90;;;;;;5111270;28;20210;-51
2022/08/07 03:04:29;;;;;;;1.60;0.80;;;11.70;99.90;;;;;;5110895;28;20207;-51
2022/08/07 03:07:00;;;;;;;0.93;0.90;;;11.70;99.90;;;;;;5111308;28;20212;-52
2022/08/07 03:09:38;;;;;;;2.20;1.00;;;11.70;99.90;;;;;;5111045;28;20231;-51
2022/08/07 03:12:14;;;;;;;1.47;0.90;;;11.70;99.90;;;;;;5108856;28;20227;-51
2022/08/07 03:14:50;;;;;;;1.53;1.10;;;11.70;99.90;;;;;;5111479;28;20227;-52
2022/08/07 03:17:20;;;;;;;2.10;1.00;;;11.70;99.90;;;;;;5109239;28;20227;-52
2022/08/07 03:19:49;;;;;;;0.80;0.80;;;11.70;99.90;;;;;;5098982;28;20220;-52
2022/08/07 03:22:23;;;;;;;0.83;0.83;;;11.80;99.90;;;;;;5110476;28;20207;-52
2022/08/07 03:24:58;;;;;;;2.27;1.00;;;11.80;99.90;;;;;;5110432;28;20207;-52
2022/08/07 03:27:29;;;;;;;2.50;1.27;;;11.80;99.90;;;;;;5109342;28;20228;-51
2022/08/07 03:30:17;;;;;;;1.67;1.10;;;11.80;99.90;;;;;;5110904;28;20663;-52
2022/08/07 03:32:48;;;;;;;3.60;1.43;;;11.70;99.90;;;;;;5108785;28;20215;-52
2022/08/07 03:35:29;;;;;;;2.90;1.43;;;11.70;99.90;;;;;;5110899;28;20203;-52
2022/08/07 03:38:18;;;;;;;1.87;1.23;;;11.70;99.90;;;;;;5110059;28;20238;-52
2022/08/07 03:40:50;;;;;;;2.30;1.30;;;11.60;99.90;;;;;;5110485;28;20752;-52
2022/08/07 03:43:26;;;;;;;1.43;1.30;;;11.70;99.90;;;;;;5109901;28;20213;-52
2022/08/07 03:46:01;;;;;;;2.30;1.40;;;11.60;99.90;;;;;;5110958;28;20202;-50
2022/08/07 03:48:31;;;;;;;1.37;1.27;;;11.60;99.90;;;;;;5107872;28;20681;-51
2022/08/07 03:51:13;;;;;;;2.97;1.37;;;11.60;99.90;;;;;;5110737;28;20203;-52
2022/08/07 03:53:41;;;;;;;1.83;1.23;;;11.50;99.90;;;;;;5109053;28;20203;-52
2022/08/07 03:56:33;;;;;;;1.40;1.30;;;11.50;99.90;;;;;;5102744;28;20294;-52
2022/08/07 03:59:05;;;;;;;1.43;1.20;;;11.50;99.90;;;;;;5110072;28;20235;-52
2022/08/07 04:01:41;;;;;;;3.40;1.40;;;11.50;99.90;;;;;;5110114;28;20207;-52
2022/08/07 04:04:15;;;;;;;3.90;1.40;;;11.50;99.90;;;;;;5109847;28;20211;-52
2022/08/07 04:06:44;;;;;;;1.37;1.27;;;11.40;99.90;;;;;;5110793;28;20230;-51
2022/08/07 04:09:17;;;;;;;1.20;1.10;;;11.50;99.90;;;;;;5110580;28;20312;-51
2022/08/07 04:11:51;;;;;;;1.77;1.30;;;11.50;99.90;;;;;;5109728;28;20211;-52
2022/08/07 04:14:41;;;;;;;1.87;1.20;;;11.40;99.90;;;;;;5110129;28;20225;-52
2022/08/07 04:17:13;;;;;;;1.50;1.40;;;11.50;99.90;;;;;;5109943;28;20199;-51
2022/08/07 04:19:48;;;;;;;1.40;1.30;;;11.50;99.90;;;;;;5103403;28;20226;-51
2022/08/07 04:22:23;;;;;;;1.70;1.60;;;11.50;99.90;;;;;;5109763;28;20239;-52
2022/08/07 04:24:57;;;;;;;2.90;1.40;;;11.50;99.90;;;;;;5109477;28;20202;-51
2022/08/07 04:27:25;;;;;;;1.70;1.60;;;11.60;99.90;;;;;;5108218;28;20227;-52
2022/08/07 04:29:55;;;;;;;3.73;1.40;;;11.60;99.90;;;;;;5109706;28;20230;-52
2022/08/07 04:32:29;;;;;;;2.43;1.60;;;11.60;99.90;;;;;;5108278;28;20772;-51
2022/08/07 04:35:03;;;;;;;2.50;1.40;;;11.70;99.90;;;;;;5109770;28;20210;-51
2022/08/07 04:37:34;;;;;;;1.37;1.27;;;11.80;99.90;;;;;;5109644;28;20200;-52
2022/08/07 04:40:22;;;;;;;1.50;1.30;;;12.10;99.90;;;;;;5108902;28;20730;-52
2022/08/07 04:42:56;;;;;;;2.30;1.50;;;12.40;99.90;;;;;;5109846;28;20271;-51
2022/08/07 04:45:38;;;;;;;2.73;1.70;;;12.70;99.90;;;;;;5109570;28;20207;-52
2022/08/07 04:48:34;;;;;;;2.60;1.50;;;13.10;99.90;;;;;;5106220;28;20314;-51
2022/08/07 04:51:08;;;;;;;2.37;1.30;;;13.30;99.90;;;;;;5109428;28;20207;-52
2022/08/07 04:53:42;;;;;;;2.13;1.00;;;13.60;99.90;;;;;;5109506;28;20203;-51
2022/08/07 04:56:38;;;;;;;1.20;1.20;;;14.10;99.90;;;;;;5105780;28;20846;-52
2022/08/07 04:59:32;;;;;;;2.17;1.20;;;14.40;99.90;;;;;;5113466;28;20238;-52
2022/08/07 05:02:27;;;;;;;1.60;1.17;;;15.30;99.90;;;;;;5112903;28;20298;-51
2022/08/07 05:05:02;;;;;;;1.88;1.00;;;15.50;99.90;;;;;;5113227;28;20248;-52
2022/08/07 05:07:58;;;;;;;1.67;1.05;;;15.80;99.90;;;;;;5112845;28;20674;-53
2022/08/07 05:10:33;;;;;;;1.98;0.98;;;16.50;99.90;;;;;;5113497;28;20226;-52
2022/08/07 05:13:08;;;;;;;1.98;1.10;;;17.10;99.90;;;;;;5113286;28;20571;-51
2022/08/07 05:15:59;;;;;;;1.23;0.93;;;17.70;99.90;;;;;;5113442;28;20282;-52
2022/08/07 05:18:36;;;;;;;1.63;1.42;;;18.10;99.90;;;;;;5107074;28;20214;-52
2022/08/07 05:21:10;;;;;;;1.65;1.27;;;18.30;99.90;;;;;;5089571;28;20205;-52
2022/08/07 05:23:45;;;;;;;3.25;1.30;;;18.00;99.90;;;;;;5087163;28;20310;-52
2022/08/07 05:26:17;;;;;;;1.10;1.00;;;17.60;99.90;;;;;;5097467;28;20252;-51
2022/08/07 05:28:53;;;;;;;1.63;1.02;;;17.50;99.90;;;;;;5095901;28;20263;-52
2022/08/07 05:31:25;;;;;;;1.98;0.80;;;18.00;99.90;;;;;;5085096;28;20205;-52
2022/08/07 05:34:09;;;;;;;1.73;0.95;;;18.40;99.90;;;;;;5092192;28;20204;-52
2022/08/07 05:36:40;;;;;;;1.67;0.93;;;18.80;99.90;;;;;;5091750;28;20212;-52
2022/08/07 05:39:09;;;;;;;2.05;0.90;;;19.20;99.90;;;;;;5091677;28;20216;-52
2022/08/07 05:41:58;;;;;;;1.45;0.90;;;19.40;99.90;;;;;;5096952;28;20239;-52
2022/08/07 05:44:33;;;;;;;0.82;0.82;;;19.70;99.90;;;;;;5112597;28;20231;-52
2022/08/07 05:47:01;;;;;;;2.97;0.80;;;20.00;99.90;;;;;;5111524;28;20636;-53
2022/08/07 05:49:49;;;;;;;1.55;1.00;;;20.10;99.90;;;;;;5112619;28;20227;-53
2022/08/07 05:52:17;;;;;;;2.40;0.93;;;20.10;99.90;;;;;;5111998;28;20215;-52
2022/08/07 05:54:47;;;;;;;2.22;0.98;;;19.40;99.90;;;;;;5106258;28;20673;-52
2022/08/07 05:57:24;;;;;;;1.67;0.80;;;19.10;99.90;;;;;;5111583;28;20635;-52
2022/08/07 05:59:58;;;;;;;1.55;0.95;;;19.00;99.90;;;;;;5112362;28;20254;-52
2022/08/07 06:02:29;;;;;;;1.13;1.00;;;19.20;99.90;;;;;;5112205;28;20253;-53
2022/08/07 06:05:03;;;;;;;3.10;0.88;;;19.10;99.90;;;;;;5111943;28;20211;-52
2022/08/07 06:07:33;;;;;;;1.45;0.82;;;18.80;99.90;;;;;;5110875;28;20223;-53
2022/08/07 06:10:22;;;;;;;1.33;0.93;;;18.70;99.90;;;;;;5111952;28;20326;-52
2022/08/07 06:12:50;;;;;;;1.63;1.00;;;19.00;99.90;;;;;;5112317;28;20215;-53
2022/08/07 06:15:19;;;;;;;2.35;0.95;;;19.80;99.90;;;;;;5111872;28;20260;-53
2022/08/07 06:17:48;;;;;;;2.85;1.00;;;20.00;99.90;;;;;;5111572;28;20196;-52
2022/08/07 06:20:23;;;;;;;2.42;0.93;;;20.00;99.90;;;;;;5105283;28;20730;-53
2022/08/07 06:23:12;;;;;;;1.40;0.82;;;20.50;99.90;;;;;;5112198;28;20279;-53
2022/08/07 06:26:01;;;;;;;1.15;0.98;;;21.20;99.90;;;;;;5111286;28;20202;-53
2022/08/07 06:28:29;;;;;;;1.30;0.85;;;21.80;99.90;;;;;;5110444;28;20264;-53
2022/08/07 06:30:58;;;;;;;1.20;0.82;;;22.00;99.90;;;;;;5108693;28;20665;-53
2022/08/07 06:33:27;;;;;;;1.15;0.68;;;22.40;99.90;;;;;;5111476;28;20211;-53
2022/08/07 06:36:01;;;;;;;1.40;0.85;;;22.80;99.90;;;;;;5111603;28;20200;-53
2022/08/07 06:38:41;;;;;;;1.55;0.90;;;22.90;99.20;;;;;;5111029;28;20278;-53
2022/08/07 06:41:35;;;;;;;2.05;0.70;;;23.30;99.00;;;;;;5111658;28;20290;-53
2022/08/07 06:44:25;;;;;;;2.05;0.77;;;23.80;97.30;;;;;;5110771;28;20308;-53
2022/08/07 06:47:01;;;;;;;1.80;0.60;;;23.90;96.90;;;;;;5111759;28;20195;-53
2022/08/07 06:49:39;;;;;;;1.27;0.70;;;23.80;95.80;;;;;;5110922;28;20235;-53
2022/08/07 06:52:30;;;;;;;0.90;0.68;;;23.70;95.90;;;;;;5112050;28;20204;-53
2022/08/07 06:55:05;;;;;;;2.53;0.77;;;24.00;96.70;;;;;;5103058;28;20204;-53
2022/08/07 06:57:57;;;;;;;0.95;0.80;;;24.30;96.00;;;;;;5090620;28;20231;-53
2022/08/07 07:00:28;;;;;;;1.73;0.70;;;24.40;94.10;;;;;;5085625;28;20224;-53
2022/08/07 07:03:01;;;;;;;1.05;0.68;;;24.30;93.40;;;;;;5079842;28;20213;-52
2022/08/07 07:05:38;;;;;;;1.27;0.70;;;24.40;93.00;;;;;;5086707;28;20203;-52
2022/08/07 07:08:28;;;;;;;2.17;1.00;;;24.60;92.90;;;;;;5089695;28;20311;-52
2022/08/07 07:11:00;;;;;;;2.08;0.90;;;24.60;92.40;;;;;;5090318;28;20208;-53
2022/08/07 07:13:44;;;;;;;2.50;0.60;;;24.80;91.90;;;;;;5089971;28;20207;-53
2022/08/07 07:16:30;;;;;;;0.70;0.70;;;24.90;92.20;;;;;;5090052;28;20214;-53
2022/08/07 07:19:06;;;;;;;1.20;0.68;;;24.90;91.20;;;;;;5089447;28;20223;-53
2022/08/07 07:21:54;;;;;;;1.15;0.85;;;24.80;91.00;;;;;;5080002;28;20322;-53
2022/08/07 07:24:41;;;;;;;2.63;1.00;;;24.80;90.60;;;;;;5105012;28;20208;-52
2022/08/07 07:27:33;;;;;;;1.50;0.73;;;25.00;91.70;;;;;;5108638;28;20290;-53
2022/08/07 07:30:24;;;;;;;0.63;0.63;;;25.50;90.30;;;;;;5104006;28;20314;-52
2022/08/07 07:33:06;;;;;;;0.70;0.50;;;25.50;89.50;;;;;;5081479;28;20200;-53
2022/08/07 07:35:36;;;;;;;1.17;0.50;;;25.10;89.60;;;;;;5105702;28;20214;-53
2022/08/07 07:38:24;;;;;;;0.98;0.70;;;25.30;91.30;;;;;;5109998;28;20237;-53
2022/08/07 07:40:58;;;;;;;4.05;1.10;;;25.60;89.10;;;;;;5083683;28;20781;-53
2022/08/07 07:43:31;;;;;;;0.47;0.47;;;25.70;90.30;;;;;;5107850;28;20594;-53
2022/08/07 07:46:21;;;;;;;0.95;0.60;;;25.60;90.10;;;;;;5110261;28;20303;-53
2022/08/07 07:49:12;;;;;;;1.65;0.57;;;25.70;90.10;;;;;;5109492;28;20609;-52
2022/08/07 07:52:01;;;;;;;0.93;0.50;;;26.00;88.80;;;;;;5110543;28;20650;-53
2022/08/07 07:54:31;;;;;;;2.33;0.80;;;26.00;87.10;;;;;;5106554;28;20204;-52
2022/08/07 07:57:06;;;;;;;0.90;0.70;;;26.10;87.40;;;;;;5106784;28;20212;-53
2022/08/07 07:59:38;;;;;;;1.63;0.80;;;26.10;87.90;;;;;;5109513;28;20354;-52
2022/08/07 08:02:23;;;;;;;0.80;0.60;;;26.20;85.10;;;;;;5097868;28;20713;-53
2022/08/07 08:05:04;;;;;;;1.98;0.60;;;26.30;85.70;;;;;;5109924;28;20233;-53
2022/08/07 08:07:43;;;;;;;3.03;0.73;;;26.30;86.50;;;;;;5110206;28;20290;-53
2022/08/07 08:10:30;;;;;;;1.73;0.70;;;26.10;88.10;;;;;;5109501;28;20761;-53
2022/08/07 08:13:09;;;;;;;1.13;0.80;;;25.80;84.30;;;;;;5110289;28;20245;-52
2022/08/07 08:15:46;;;;;;;1.13;0.90;;;25.40;87.50;;;;;;5109742;28;20218;-53
2022/08/07 08:18:28;;;;;;;1.50;0.63;;;25.30;84.50;;;;;;5106248;28;20204;-52
2022/08/07 08:21:00;;;;;;;1.95;0.50;;;25.00;83.90;;;;;;5104519;28;20228;-53
2022/08/07 08:29:04;;;;;;;1.88;0.63;;;24.60;89.40;;;;;;5106132;28;20284;-51
2022/08/07 08:31:38;;;;;;;1.80;0.90;;;24.40;86.20;;;;;;5109250;28;20206;-52
2022/08/07 08:34:27;;;;;;;1.08;0.68;;;24.30;84.30;;;;;;5105603;28;20300;-52
2022/08/07 08:36:57;;;;;;;0.98;0.70;;;24.10;82.90;;;;;;5109435;28;20727;-52
2022/08/07 08:39:27;;;;;;;1.55;0.65;;;24.10;83.30;;;;;;5104311;28;20229;-52
2022/08/07 08:42:23;;;;;;;1.15;0.68;;;24.10;82.50;;;;;;5102752;28;20346;-52
2022/08/07 08:45:05;;;;;;;1.55;0.50;;;24.00;84.40;;;;;;5109617;28;20207;-52
2022/08/07 08:47:45;;;;;;;5.13;0.93;;;24.00;80.60;;;;;;5109216;28;20207;-52
2022/08/07 08:50:22;;;;;;;1.58;0.88;;;24.10;80.10;;;;;;5098800;28;20224;-52
2022/08/07 08:53:13;;;;;;;2.42;0.90;;;24.10;79.80;;;;;;5094728;28;20680;-52
2022/08/07 08:55:48;;;;;;;1.75;0.85;;;23.80;79.30;;;;;;5082128;28;20287;-52
2022/08/07 08:58:33;;;;;;;1.83;0.82;;;23.90;82.40;;;;;;5088876;28;20218;-52
2022/08/07 09:01:13;;;;;;;2.33;0.90;;;23.70;80.80;;;;;;5088925;28;20211;-52
2022/08/07 09:03:54;;;;;;;1.05;0.63;;;23.80;83.80;;;;;;5087872;28;20634;-52
2022/08/07 09:06:35;;;;;;;1.30;0.60;;;23.80;80.00;;;;;;5089203;28;20602;-52
2022/08/07 09:09:10;;;;;;;2.08;0.95;;;23.80;79.60;;;;;;5077962;28;20273;-53
2022/08/07 09:11:58;;;;;;;1.48;0.73;;;23.80;78.80;;;;;;5098859;28;20252;-52
2022/08/07 09:14:55;;;;;;;0.88;0.43;;;23.70;79.20;;;;;;5108635;28;20286;-52
2022/08/07 09:17:37;;;;;;;0.73;0.73;;;23.70;78.20;;;;;;5109209;28;20249;-52
2022/08/07 09:20:32;;;;;;;1.48;0.82;;;23.70;81.90;;;;;;5100478;28;20315;-52
2022/08/07 09:23:13;;;;;;;1.10;0.70;;;23.70;79.20;;;;;;5108136;28;20322;-52
2022/08/07 09:26:18;;;;;;;1.80;0.70;;;23.80;81.20;;;;;;5108721;28;20294;-53
2022/08/07 09:28:53;;;;;;;1.80;0.50;;;23.70;78.90;;;;;;5104804;28;20257;-52
2022/08/07 09:31:54;;;;;;;1.17;0.73;;;23.70;79.20;;;;;;5108720;28;20315;-53
2022/08/07 09:34:29;;;;;;;1.75;0.80;;;23.70;79.80;;;;;;5104949;28;20256;-53
2022/08/07 09:37:02;;;;;;;1.15;0.73;;;23.70;79.60;;;;;;5108691;28;20206;-55
2022/08/07 09:39:46;;;;;;;1.92;0.70;;;23.70;79.30;;;;;;5101922;28;20224;-52
2022/08/07 09:42:37;;;;;;;2.15;0.45;;;23.80;81.70;;;;;;5082993;28;20204;-52
2022/08/07 09:45:14;;;;;;;1.17;0.77;;;23.80;82.30;;;;;;5105165;28;20208;-53
2022/08/07 09:48:27;;;;;;;0.52;0.52;;;23.80;79.90;;;;;;5112342;28;20299;-52
2022/08/07 09:51:15;;;;;;;1.30;0.68;;;23.90;79.70;;;;;;5112273;28;20227;-53
2022/08/07 09:54:06;;;;;;;0.57;0.52;;;23.80;79.80;;;;;;5112128;28;20306;-52
2022/08/07 09:57:15;;;;;;;1.65;0.70;;;23.80;80.90;;;;;;5099636;28;20218;-52
2022/08/07 10:00:01;;;;;;;0.77;0.73;;;23.80;78.50;;;;;;5033054;28;20231;-52
2022/08/07 10:03:01;;;;;;;1.40;0.68;;;23.60;77.50;;;;;;5111948;28;20203;-52
2022/08/07 10:06:09;;;;;;;1.13;0.80;;;23.50;77.50;;;;;;5110233;28;20204;-52
2022/08/07 10:09:12;;;;;;;1.83;1.02;;;23.60;78.60;;;;;;5111778;28;20607;-52
2022/08/07 10:11:55;;;;;;;1.13;0.57;;;23.60;80.20;;;;;;5112372;28;20648;-52
2022/08/07 10:15:01;;;;;;;1.40;0.60;;;23.70;78.70;;;;;;5112290;28;20286;-52
2022/08/07 10:17:56;;;;;;;1.15;0.68;;;23.60;78.70;;;;;;5111222;28;20207;-51
2022/08/07 10:20:43;;;;;;;0.77;0.40;;;23.70;79.20;;;;;;5099498;28;20227;-52
2022/08/07 10:23:44;;;;;;;0.80;0.60;;;23.70;80.40;;;;;;5087896;28;20210;-52
2022/08/07 10:26:48;;;;;;;1.60;0.68;;;23.60;78.10;;;;;;5111483;28;20294;-52
2022/08/07 10:29:47;;;;;;;2.33;0.50;;;23.50;78.50;;;;;;5111024;28;20653;-52
2022/08/07 10:32:37;;;;;;;2.75;0.65;;;23.60;84.80;;;;;;5105238;28;20215;-50
2022/08/07 10:35:28;;;;;;;2.00;0.90;;;23.70;84.30;;;;;;5092184;28;20590;-50
2022/08/07 10:38:30;;;;;;;1.85;0.70;;;23.70;80.30;;;;;;5111842;28;20230;-50
2022/08/07 10:41:21;;;;;;;2.00;1.00;;;23.60;77.60;;;;;;5111868;28;20204;-52
2022/08/07 10:44:17;;;;;;;2.03;0.82;;;23.50;78.50;;;;;;5089441;28;20256;-52
2022/08/07 10:47:18;;;;;;;1.48;0.90;;;23.40;80.90;;;;;;5111115;28;20259;-52
2022/08/07 10:50:03;;;;;;;2.20;0.70;;;23.60;83.30;;;;;;5112057;28;20314;-52
2022/08/07 10:52:39;;;;;;;0.60;0.60;;;23.80;83.40;;;;;;5086900;28;20207;-52
2022/08/07 10:55:23;;;;;;;1.98;0.63;;;24.00;84.80;;;;;;5103935;28;20291;-52
2022/08/07 10:58:18;;;;;;;1.08;0.80;;;24.20;84.90;;;;;;5111122;28;20302;-52
2022/08/07 11:01:16;;;;;;;0.77;0.60;;;24.10;84.70;;;;;;5111898;28;20195;-52
2022/08/07 11:03:56;;;;;;;0.90;0.65;;;23.90;82.60;;;;;;5111471;28;20260;-51
2022/08/07 11:06:53;;;;;;;2.67;0.93;;;23.90;82.50;;;;;;5111529;28;20673;-52
2022/08/07 11:09:28;;;;;;;1.42;0.57;;;23.90;82.60;;;;;;5110703;28;20223;-52
2022/08/07 11:12:19;;;;;;;1.45;0.90;;;23.90;84.50;;;;;;5111153;28;20208;-52
2022/08/07 11:15:03;;;;;;;2.70;1.00;;;23.80;80.10;;;;;;5111074;28;20879;-50
2022/08/07 11:17:48;;;;;;;0.85;0.52;;;23.90;79.80;;;;;;5109803;28;20208;-50
2022/08/07 11:20:20;;;;;;;1.52;0.75;;;23.90;80.90;;;;;;5104358;28;20707;-50
2022/08/07 11:23:01;;;;;;;1.75;0.68;;;23.80;81.30;;;;;;5111060;28;20223;-50
2022/08/07 11:25:35;;;;;;;2.13;1.05;;;23.80;80.40;;;;;;5111165;28;20199;-50
2022/08/07 11:28:21;;;;;;;1.60;0.77;;;23.80;77.70;;;;;;5110306;28;20294;-50
2022/08/07 11:30:57;;;;;;;1.05;0.77;;;23.70;79.00;;;;;;5110212;28;20230;-50
2022/08/07 11:33:33;;;;;;;1.17;0.90;;;23.80;76.80;;;;;;5109609;28;20234;-50
2022/08/07 11:36:37;;;;;;;1.35;0.70;;;23.80;76.40;;;;;;5110110;28;20719;-49
2022/08/07 11:39:15;;;;;;;1.75;0.80;;;23.70;77.30;;;;;;5110672;28;20269;-49
2022/08/07 11:41:54;;;;;;;1.55;0.95;;;23.60;77.30;;;;;;5084514;28;20203;-50
2022/08/07 11:44:38;;;;;;;0.95;0.73;;;23.60;77.10;;;;;;5110942;28;20640;-49
2022/08/07 11:47:40;;;;;;;0.63;0.60;;;23.60;79.10;;;;;;5110049;28;20586;-48
2022/08/07 11:50:43;;;;;;;0.88;0.88;;;23.60;76.40;;;;;;5110468;28;20234;-50
2022/08/07 11:53:36;;;;;;;1.23;0.70;;;23.60;76.50;;;;;;5106530;28;20261;-53
2022/08/07 11:56:29;;;;;;;1.52;0.70;;;23.60;77.00;;;;;;5105262;28;20207;-52
2022/08/07 11:59:15;;;;;;;1.17;0.68;;;23.60;78.10;;;;;;5110022;28;20235;-52
2022/08/07 12:02:14;;;;;;;0.60;0.55;;;23.60;77.10;;;;;;5090653;28;20647;-51
2022/08/07 12:05:07;;;;;;;1.48;0.75;;;23.60;77.10;;;;;;5110445;28;20287;-54
2022/08/07 12:07:54;;;;;;;2.75;0.77;;;23.70;77.60;;;;;;5109763;28;20204;-52
2022/08/07 12:10:37;;;;;;;1.17;0.55;;;23.70;75.90;;;;;;5110900;28;20227;-53
2022/08/07 12:13:14;;;;;;;2.08;0.70;;;23.60;75.00;;;;;;5110332;28;20206;-52
2022/08/07 12:15:51;;;;;;;1.67;0.98;;;23.60;77.70;;;;;;5109790;28;20211;-52
2022/08/07 12:18:41;;;;;;;2.50;0.80;;;23.70;77.70;;;;;;5105058;28;20226;-52
2022/08/07 12:21:34;;;;;;;1.23;0.77;;;23.80;76.00;;;;;;5103450;28;20607;-52
2022/08/07 12:24:32;;;;;;;3.25;0.60;;;23.80;74.10;;;;;;5109798;28;20286;-52
2022/08/07 12:27:10;;;;;;;0.77;0.77;;;23.80;76.70;;;;;;5109689;28;20203;-52
2022/08/07 12:29:50;;;;;;;0.88;0.68;;;23.70;73.10;;;;;;5097493;28;20714;-52
2022/08/07 12:32:24;;;;;;;1.50;0.80;;;23.70;74.20;;;;;;5109479;28;20254;-52
2022/08/07 12:34:53;;;;;;;1.02;0.70;;;23.80;74.70;;;;;;5103864;28;20208;-52
2022/08/07 12:37:25;;;;;;;0.60;0.60;;;23.90;74.80;;;;;;5109704;28;20253;-52
2022/08/07 12:40:19;;;;;;;1.00;0.90;;;23.80;73.90;;;;;;5109726;28;20251;-52
2022/08/07 12:43:11;;;;;;;0.90;0.80;;;23.80;75.80;;;;;;5097781;28;20290;-52
2022/08/07 12:46:11;;;;;;;1.67;0.82;;;23.80;74.00;;;;;;5109511;28;20199;-51
2022/08/07 12:48:53;;;;;;;0.88;0.77;;;23.80;76.70;;;;;;5108715;28;20203;-52
2022/08/07 12:51:26;;;;;;;1.88;0.88;;;23.70;75.30;;;;;;5110010;28;20336;-51
2022/08/07 12:54:20;;;;;;;0.60;0.57;;;23.80;78.20;;;;;;5086361;28;20691;-52
2022/08/07 12:57:09;;;;;;;0.40;0.40;;;24.00;73.10;;;;;;5107148;28;20253;-52
2022/08/07 12:59:49;;;;;;;1.00;0.70;;;24.00;74.10;;;;;;5109409;28;20876;-52
2022/08/07 13:02:42;;;;;;;1.20;0.68;;;24.00;74.50;;;;;;5109240;28;20252;-51
2022/08/07 13:05:26;;;;;;;0.80;0.55;;;24.00;72.40;;;;;;5109311;28;20763;-52
2022/08/07 13:08:29;;;;;;;1.45;0.77;;;23.90;76.40;;;;;;5109269;28;20287;-51
2022/08/07 13:11:08;;;;;;;0.68;0.65;;;23.90;75.70;;;;;;5109598;28;20215;-51
2022/08/07 13:13:54;;;;;;;1.15;0.70;;;24.00;75.70;;;;;;5109686;28;20255;-51
2022/08/07 13:16:32;;;;;;;1.52;0.80;;;24.00;72.90;;;;;;5111648;28;20286;-52
2022/08/07 13:19:15;;;;;;;0.65;0.65;;;24.00;73.50;;;;;;5106379;28;20242;-51
2022/08/07 13:22:09;;;;;;;3.05;1.10;;;24.00;73.00;;;;;;5113405;28;20690;-51
2022/08/07 13:24:54;;;;;;;1.23;0.85;;;24.00;72.30;;;;;;5113174;28;20222;-52
2022/08/07 13:27:29;;;;;;;0.98;0.70;;;24.00;73.70;;;;;;5112043;28;20207;-51
2022/08/07 13:30:19;;;;;;;0.90;0.65;;;23.90;73.50;;;;;;5112856;28;20795;-51
2022/08/07 13:33:10;;;;;;;1.88;0.98;;;23.80;72.90;;;;;;5111426;28;20311;-51
2022/08/07 13:36:09;;;;;;;1.27;0.60;;;23.90;74.60;;;;;;5112734;28;20287;-52
2022/08/07 13:38:50;;;;;;;1.10;0.70;;;24.00;71.30;;;;;;5112387;28;20288;-52
2022/08/07 13:41:29;;;;;;;2.35;0.70;;;23.90;72.20;;;;;;5112820;28;20678;-51
2022/08/07 13:44:01;;;;;;;1.92;0.80;;;24.00;74.40;;;;;;5113070;28;20213;-52
2022/08/07 13:46:35;;;;;;;0.57;0.57;;;24.10;73.50;;;;;;5112733;28;20302;-51
2022/08/07 13:49:18;;;;;;;1.33;0.70;;;24.10;75.00;;;;;;5112308;28;20600;-51
2022/08/07 13:52:08;;;;;;;0.73;0.73;;;24.20;74.10;;;;;;5112535;28;20751;-51
2022/08/07 13:54:57;;;;;;;0.98;0.60;;;24.20;71.70;;;;;;5105812;28;20208;-52
2022/08/07 13:57:29;;;;;;;1.65;0.60;;;24.20;72.50;;;;;;5084693;28;20199;-52
2022/08/07 14:00:08;;;;;;;1.00;0.90;;;24.10;72.00;;;;;;5110956;28;20265;-52
2022/08/07 14:02:57;;;;;;;1.30;0.80;;;24.10;72.00;;;;;;5112931;28;20264;-52